Time;durP1;ratioP1;P1;durP2;ratioP2;P2;SDS_P1;SDS_P2;PMS_P1;PMS_P2;Temp;Humidity;BMP_temperature;BMP_pressure;BME280_temperature;BME280_humidity;BME280_pressure;Samples;Min_cycle;Max_cycle;Signal;HPM_P1;HPM_P2
2021/12/15 00:01:38;;;;;;;56.38;33.00;;;;;;;7.98;100.00;102920.81;4861775;29;20029;-89
2021/12/15 00:04:04;;;;;;;55.38;33.40;;;;;;;7.94;100.00;102913.72;4877218;29;20045;-90
2021/12/15 00:06:30;;;;;;;61.88;33.50;;;;;;;7.93;100.00;102908.41;4861821;29;20044;-90
2021/12/15 00:08:59;;;;;;;55.95;32.65;;;;;;;7.96;100.00;102906.75;4861752;29;20037;-90
2021/12/15 00:11:32;;;;;;;57.42;32.63;;;;;;;7.91;100.00;102903.13;4861636;29;20039;-90
2021/12/15 00:13:59;;;;;;;54.75;30.48;;;;;;;7.91;100.00;102899.56;4877323;29;20041;-90
2021/12/15 00:16:25;;;;;;;57.00;31.55;;;;;;;7.95;100.00;102899.66;4876606;29;20048;-90
2021/12/15 00:18:51;;;;;;;61.88;34.67;;;;;;;7.93;100.00;102898.72;4876382;29;20033;-90
2021/12/15 00:21:19;;;;;;;51.42;31.27;;;;;;;7.95;100.00;102904.94;4861180;29;20020;-90
2021/12/15 00:23:48;;;;;;;57.65;30.63;;;;;;;7.94;100.00;102899.66;4876123;29;20100;-90
2021/12/15 00:26:15;;;;;;;59.05;33.17;;;;;;;7.93;100.00;102896.09;4858796;29;20033;-90
2021/12/15 00:28:42;;;;;;;57.33;31.85;;;;;;;7.94;100.00;102897.00;4876956;29;20184;-90
2021/12/15 00:31:10;;;;;;;58.95;32.53;;;;;;;7.97;100.00;102897.06;4876644;29;20029;-90
2021/12/15 00:33:39;;;;;;;55.25;33.55;;;;;;;7.95;100.00;102901.41;4861197;29;20143;-90
2021/12/15 00:36:05;;;;;;;56.97;32.53;;;;;;;7.93;100.00;102903.13;4876937;29;20084;-90
2021/12/15 00:38:32;;;;;;;55.15;31.65;;;;;;;7.93;100.00;102903.13;4876653;29;20127;-90
2021/12/15 00:40:58;;;;;;;60.58;33.15;;;;;;;7.89;100.00;102891.63;4860985;29;20485;-90
2021/12/15 00:43:26;;;;;;;52.83;30.42;;;;;;;7.91;100.00;102903.13;4845946;29;20133;-90
2021/12/15 00:45:51;;;;;;;57.45;31.55;;;;;;;7.92;100.00;102899.59;4860982;29;20029;-89
2021/12/15 00:48:18;;;;;;;64.80;35.60;;;;;;;7.82;100.00;102886.19;4860925;29;20113;-90
2021/12/15 00:50:45;;;;;;;66.10;35.40;;;;;;;7.84;100.00;102889.72;4876400;29;20057;-89
2021/12/15 00:53:11;;;;;;;62.50;36.05;;;;;;;7.80;100.00;102886.16;4875887;29;20060;-90
2021/12/15 00:55:38;;;;;;;59.28;32.00;;;;;;;7.84;100.00;102887.09;4875384;29;20100;-90
2021/12/15 00:58:05;;;;;;;62.33;33.83;;;;;;;7.83;100.00;102877.41;4860450;29;20037;-90
2021/12/15 01:00:45;;;;;;;60.58;33.95;;;;;;;7.83;100.00;102885.31;4861113;29;20112;-90
2021/12/15 01:03:12;;;;;;;65.68;36.90;;;;;;;7.89;100.00;102893.38;4860900;29;20519;-90
2021/12/15 01:05:43;;;;;;;66.97;33.88;;;;;;;7.87;100.00;102888.06;4860819;29;20033;-90
2021/12/15 01:08:10;;;;;;;;;;;;;;;7.90;100.00;102898.66;4876518;29;20039;-90
2021/12/15 01:11:02;;;;;;;58.00;31.58;;;;;;;7.83;100.00;102887.97;4869537;29;19912;-90
2021/12/15 01:21:45;;;;;;;62.03;33.60;;;;;;;7.86;100.00;102890.66;4862838;29;21130;-90
2021/12/15 01:24:11;;;;;;;59.70;32.60;;;;;;;7.79;100.00;102883.47;4876408;29;20029;-89
2021/12/15 01:26:37;;;;;;;60.80;32.88;;;;;;;7.85;100.00;102891.53;4860574;29;20124;-90
2021/12/15 01:29:03;;;;;;;62.92;32.70;;;;;;;7.84;100.00;102892.34;4860561;29;20061;-90
2021/12/15 01:31:29;;;;;;;60.13;32.40;;;;;;;7.82;100.00;102894.09;4860481;29;20033;-90
2021/12/15 01:33:55;;;;;;;57.60;30.02;;;;;;;7.81;100.00;102889.66;4876020;29;20051;-90
2021/12/15 01:36:20;;;;;;;56.97;30.73;;;;;;;7.81;100.00;102890.53;4875700;29;20345;-89
2021/12/15 01:38:47;;;;;;;58.45;32.40;;;;;;;7.84;100.00;102900.28;4875863;29;20037;-90
2021/12/15 01:41:22;;;;;;;57.58;30.95;;;;;;;7.82;100.00;102897.63;4860105;29;20112;-90
2021/12/15 01:49:24;;;;;;;52.05;29.90;;;;;;;7.83;100.00;102902.03;4885160;29;20124;-90
2021/12/15 01:51:50;;;;;;;60.55;30.48;;;;;;;7.83;100.00;102902.03;4850574;29;20064;-90
2021/12/15 01:54:20;;;;;;;53.78;30.60;;;;;;;7.81;100.00;102902.84;4860316;29;20160;-89
2021/12/15 01:56:48;;;;;;;59.60;31.52;;;;;;;7.79;100.00;102899.28;4860275;29;20041;-90
2021/12/15 01:59:16;;;;;;;55.47;30.05;;;;;;;7.84;100.00;102913.47;4875992;29;20050;-90
2021/12/15 02:01:42;;;;;;;55.45;31.20;;;;;;;7.81;100.00;102913.41;4875486;29;20043;-90
2021/12/15 02:04:08;;;;;;;58.40;32.03;;;;;;;7.75;100.00;102907.13;4860507;29;20017;-90
2021/12/15 02:06:35;;;;;;;61.92;31.00;;;;;;;7.83;100.00;102923.13;4875804;29;20048;-90
2021/12/15 02:09:02;;;;;;;57.05;30.17;;;;;;;7.82;100.00;102920.47;4860100;29;20025;-90
2021/12/15 02:11:27;;;;;;;52.38;29.13;;;;;;;7.85;100.00;102915.25;4875664;29;20047;-90
2021/12/15 02:13:53;;;;;;;59.50;32.83;;;;;;;7.85;100.00;102913.50;4875553;29;20059;-90
2021/12/15 02:16:19;;;;;;;64.35;33.67;;;;;;;7.82;100.00;102913.44;4875455;29;20129;-90
2021/12/15 02:18:45;;;;;;;59.08;31.00;;;;;;;7.85;100.00;102923.19;4860192;29;20422;-90
2021/12/15 02:21:18;;;;;;;62.10;31.42;;;;;;;7.86;100.00;102931.13;4860324;29;20033;-90
2021/12/15 02:23:52;;;;;;;60.15;32.08;;;;;;;7.89;100.00;102927.69;4864600;29;20115;-89
2021/12/15 02:26:22;;;;;;;63.40;30.70;;;;;;;7.81;100.00;102918.69;4875244;29;20036;-90
2021/12/15 02:28:55;;;;;;;61.05;31.52;;;;;;;7.82;100.00;102925.75;4873005;29;20029;-90
2021/12/15 02:39:32;;;;;;;56.10;29.23;;;;;;;7.84;100.00;102929.28;4873047;29;20124;-90
2021/12/15 02:41:58;;;;;;;60.72;30.33;;;;;;;7.86;100.00;102924.94;4877184;29;20021;-90
2021/12/15 02:44:24;;;;;;;61.22;33.03;;;;;;;7.86;100.00;102924.94;4863275;29;20445;-89
2021/12/15 02:46:51;;;;;;;57.50;29.35;;;;;;;7.85;100.00;102926.69;4860544;29;20049;-89
2021/12/15 02:49:20;;;;;;;64.90;32.10;;;;;;;7.86;100.00;102924.94;4875714;29;20030;-89
2021/12/15 02:51:48;;;;;;;64.50;32.17;;;;;;;7.83;100.00;102924.88;4863228;29;20119;-89
2021/12/15 02:54:17;;;;;;;61.60;31.80;;;;;;;7.89;100.00;102930.31;4878435;29;20048;-88
2021/12/15 02:56:44;;;;;;;64.22;33.83;;;;;;;7.82;100.00;102918.72;4878426;29;20418;-89
2021/12/15 02:59:13;;;;;;;70.18;35.13;;;;;;;7.89;100.00;102922.41;4876120;29;20045;-89
2021/12/15 03:05:01;;;;;;;63.90;31.60;;;;;;;7.81;100.00;102903.75;4840255;29;20055;-89
2021/12/15 03:07:39;;;;;;;57.17;29.27;;;;;;;7.89;100.00;102917.13;4875511;29;20052;-89
2021/12/15 03:15:40;;;;;;;60.15;29.10;;;;;;;7.82;100.00;102902.00;4889382;29;20041;-89
2021/12/15 03:18:16;;;;;;;58.83;29.10;;;;;;;7.79;100.00;102904.56;4878361;29;20668;-88
2021/12/15 03:21:02;;;;;;;57.97;29.30;;;;;;;7.86;100.00;102915.31;4877908;29;20346;-89
2021/12/15 03:23:41;;;;;;;61.83;31.95;;;;;;;7.84;100.00;102903.81;4877982;29;20065;-90
2021/12/15 03:26:08;;;;;;;58.47;28.70;;;;;;;7.82;100.00;102894.97;4862768;29;20033;-90
2021/12/15 03:39:26;;;;;;;59.40;30.75;;;;;;;7.82;100.00;102904.66;4877782;29;20454;-90
2021/12/15 03:42:02;;;;;;;63.00;31.03;;;;;;;7.84;100.00;102911.75;4862492;29;20049;-89
2021/12/15 03:44:30;;;;;;;56.40;28.98;;;;;;;7.85;100.00;102917.91;4877807;29;20297;-90
2021/12/15 03:46:56;;;;;;;63.10;31.48;;;;;;;7.88;100.00;102929.41;4862073;29;20025;-90
2021/12/15 03:49:22;;;;;;;65.35;33.58;;;;;;;7.82;100.00;102923.13;4862355;29;20044;-90
2021/12/15 03:51:48;;;;;;;55.00;28.63;;;;;;;7.84;100.00;102932.84;4862562;29;20029;-90
2021/12/15 03:54:14;;;;;;;60.40;29.73;;;;;;;7.86;100.00;102927.59;4860963;29;20044;-90
2021/12/15 03:56:41;;;;;;;63.45;31.00;;;;;;;7.86;100.00;102936.41;4877611;29;20029;-90
2021/12/15 03:59:07;;;;;;;59.72;30.70;;;;;;;7.91;100.00;102941.78;4877441;29;20041;-90
2021/12/15 04:01:34;;;;;;;57.55;28.90;;;;;;;7.89;100.00;102935.59;4878707;29;20317;-90
2021/12/15 04:04:02;;;;;;;55.90;27.60;;;;;;;7.89;100.00;102925.94;4877562;29;20092;-90
2021/12/15 04:06:31;;;;;;;54.13;28.08;;;;;;;7.85;100.00;102928.44;4876573;29;20136;-90
2021/12/15 04:08:58;;;;;;;59.10;30.30;;;;;;;7.88;100.00;102939.94;4877218;29;20040;-90
2021/12/15 04:11:26;;;;;;;61.35;29.80;;;;;;;7.88;100.00;102937.31;4861372;29;20053;-90
2021/12/15 04:13:58;;;;;;;51.55;27.75;;;;;;;7.89;100.00;102938.22;4876875;29;20383;-90
2021/12/15 04:19:02;;;;;;;63.53;29.92;;;;;;;7.85;100.00;102926.69;4877079;29;20040;-90
2021/12/15 04:21:30;;;;;;;58.10;29.58;;;;;;;7.92;100.00;102943.56;4876845;29;20021;-90
2021/12/15 04:23:57;;;;;;;59.90;29.33;;;;;;;7.93;100.00;102942.69;4846703;29;20380;-90
2021/12/15 04:26:24;;;;;;;56.33;30.13;;;;;;;7.93;100.00;102947.97;4876778;29;20052;-90
2021/12/15 04:28:50;;;;;;;56.10;29.23;;;;;;;7.84;100.00;102929.28;4861218;29;20041;-90
2021/12/15 04:31:20;;;;;;;46.35;24.08;;;;;;;7.94;100.00;102945.38;4861466;29;20068;-90
2021/12/15 04:33:55;;;;;;;47.92;25.85;;;;;;;7.91;100.00;102950.59;4861308;29;20033;-90
2021/12/15 04:36:30;;;;;;;58.35;28.27;;;;;;;7.89;100.00;102944.38;4860937;29;20036;-90
2021/12/15 04:38:58;;;;;;;50.55;27.23;;;;;;;7.92;100.00;102946.22;4876766;29;20482;-90
2021/12/15 04:41:25;;;;;;;52.58;28.85;;;;;;;7.90;100.00;102943.53;4861445;29;20025;-90
2021/12/15 04:43:58;;;;;;;64.63;28.67;;;;;;;7.88;100.00;102939.94;4861102;29;20430;-86
2021/12/15 04:46:27;;;;;;;54.28;28.75;;;;;;;7.86;100.00;102946.97;4875870;29;20051;-86
2021/12/15 04:48:53;;;;;;;50.55;28.30;;;;;;;7.91;100.00;102957.59;4876292;29;20045;-86
2021/12/15 04:51:19;;;;;;;54.60;29.55;;;;;;;7.90;100.00;102955.81;4861027;29;20043;-86
2021/12/15 04:53:46;;;;;;;54.67;28.85;;;;;;;7.90;100.00;102950.56;4876303;29;20033;-85
2021/12/15 04:56:12;;;;;;;59.03;29.27;;;;;;;7.90;100.00;102948.78;4860890;29;20501;-86
2021/12/15 04:58:37;;;;;;;55.67;29.10;;;;;;;7.92;100.00;102957.66;4876374;29;20089;-86
2021/12/15 05:01:07;;;;;;;54.90;28.25;;;;;;;7.90;100.00;102961.09;4876990;29;20674;-86
2021/12/15 05:03:34;;;;;;;53.20;27.98;;;;;;;7.89;100.00;102954.06;4868442;29;20425;-85
2021/12/15 05:06:00;;;;;;;53.60;30.92;;;;;;;7.93;100.00;102961.16;4877141;29;20068;-85
2021/12/15 05:08:26;;;;;;;54.97;29.75;;;;;;;7.94;100.00;102960.34;4876669;29;20061;-85
2021/12/15 05:10:55;;;;;;;57.28;28.73;;;;;;;7.96;100.00;102969.16;4875448;29;20171;-85
2021/12/15 05:13:21;;;;;;;46.90;26.17;;;;;;;7.93;100.00;102962.06;4876046;29;20496;-86
2021/12/15 05:15:47;;;;;;;47.03;26.02;;;;;;;7.90;100.00;102955.81;4860866;29;20425;-85
2021/12/15 05:18:13;;;;;;;58.25;26.63;;;;;;;7.89;100.00;102957.59;4875792;29;20065;-85
2021/12/15 05:20:39;;;;;;;53.80;29.70;;;;;;;7.96;100.00;102971.78;4860508;29;20017;-85
2021/12/15 05:23:08;;;;;;;54.97;29.50;;;;;;;7.95;100.00;102968.25;4860674;29;20032;-85
2021/12/15 05:25:35;;;;;;;54.25;28.13;;;;;;;7.97;100.00;102976.22;4860524;29;20028;-85
2021/12/15 05:28:00;;;;;;;59.35;28.95;;;;;;;7.95;100.00;102964.75;4877367;29;20032;-86
2021/12/15 05:30:26;;;;;;;54.15;27.45;;;;;;;7.99;100.00;102974.50;4860222;29;20031;-85
2021/12/15 05:32:52;;;;;;;53.80;28.08;;;;;;;7.94;100.00;102960.34;4875601;29;20128;-85
2021/12/15 05:35:24;;;;;;;56.35;29.27;;;;;;;7.97;100.00;102971.84;4860490;29;20025;-86
2021/12/15 05:37:53;;;;;;;58.13;29.35;;;;;;;7.98;100.00;102976.25;4873015;29;20136;-85
2021/12/15 05:40:19;;;;;;;55.55;29.40;;;;;;;8.00;100.00;102976.28;4875524;29;20089;-86
2021/12/15 05:42:45;;;;;;;52.35;26.42;;;;;;;7.97;100.00;102963.91;4859657;29;20489;-86
2021/12/15 05:45:12;;;;;;;55.78;27.27;;;;;;;7.97;100.00;102968.31;4860312;29;20073;-85
2021/12/15 05:47:39;;;;;;;56.67;29.38;;;;;;;8.00;100.00;102978.91;4859801;29;20470;-85
2021/12/15 05:50:09;;;;;;;57.70;29.30;;;;;;;7.93;100.00;102959.41;4876553;29;20508;-86
2021/12/15 05:52:36;;;;;;;63.53;31.77;;;;;;;7.95;100.00;102976.19;4875382;29;20081;-85
2021/12/15 05:55:06;;;;;;;61.78;28.58;;;;;;;8.00;100.00;102973.66;4860052;29;20385;-85
2021/12/15 05:57:32;;;;;;;55.63;28.15;;;;;;;7.98;100.00;102972.72;4875394;29;20037;-85
2021/12/15 05:59:57;;;;;;;65.35;31.77;;;;;;;7.99;100.00;102974.50;4877293;29;20081;-85
2021/12/15 06:02:23;;;;;;;56.80;29.10;;;;;;;8.01;100.00;102972.81;4860474;29;20068;-85
2021/12/15 06:04:48;;;;;;;57.13;27.90;;;;;;;7.98;100.00;102967.44;4860420;29;20037;-85
2021/12/15 06:07:14;;;;;;;69.13;35.22;;;;;;;7.98;100.00;102975.34;4860314;29;20096;-85
2021/12/15 06:09:40;;;;;;;62.58;31.15;;;;;;;7.99;100.00;102985.06;4875952;29;20044;-86
2021/12/15 06:12:07;;;;;;;65.70;31.60;;;;;;;8.00;100.00;102984.19;4875628;29;20407;-85
2021/12/15 06:14:33;;;;;;;57.72;26.95;;;;;;;8.02;100.00;102986.88;4860239;29;20060;-85
2021/12/15 06:17:09;;;;;;;68.55;31.45;;;;;;;8.02;100.00;102990.41;4879135;29;20041;-86
2021/12/15 06:19:35;;;;;;;58.97;28.75;;;;;;;8.01;100.00;102988.66;4863918;29;20056;-86
2021/12/15 06:22:01;;;;;;;60.03;29.52;;;;;;;8.01;100.00;102993.91;4879262;29;20140;-86
2021/12/15 06:24:28;;;;;;;64.30;30.45;;;;;;;8.00;100.00;102991.22;4879526;29;20037;-85
2021/12/15 06:26:57;;;;;;;72.32;37.17;;;;;;;8.04;100.00;102991.34;4863706;29;20541;-85
2021/12/15 06:29:22;;;;;;;66.88;34.78;;;;;;;8.04;100.00;103001.91;4879167;29;20044;-86
2021/12/15 06:31:48;;;;;;;60.95;29.95;;;;;;;8.04;100.00;103008.94;4880601;29;20029;-86
2021/12/15 06:34:15;;;;;;;70.05;32.65;;;;;;;8.01;100.00;103004.47;4878771;29;20547;-85
2021/12/15 06:36:41;;;;;;;70.82;32.30;;;;;;;8.00;100.00;102993.88;4878519;29;20021;-86
2021/12/15 06:39:09;;;;;;;62.65;30.13;;;;;;;8.04;100.00;102999.25;4878661;29;20116;-86
2021/12/15 06:41:36;;;;;;;65.32;31.73;;;;;;;8.03;100.00;102989.53;4864142;29;20063;-85
2021/12/15 06:44:01;;;;;;;56.95;28.40;;;;;;;8.06;100.00;103008.09;4880428;29;20033;-86
2021/12/15 06:58:11;;;;;;;67.88;33.63;;;;;;;8.08;100.00;103000.22;4860094;29;20049;-86
2021/12/15 07:00:22;;;;;;;62.83;28.25;;;;;;;8.09;100.00;103000.25;4859901;29;20042;-86
2021/12/15 07:02:47;;;;;;;68.47;29.75;;;;;;;8.02;100.00;102997.44;4844596;29;20033;-86
2021/12/15 07:05:14;;;;;;;65.03;31.00;;;;;;;8.08;100.00;103011.66;4860492;29;20048;-86
2021/12/15 07:07:42;;;;;;;64.15;30.30;;;;;;;8.08;100.00;103013.41;4871664;29;20323;-85
2021/12/15 07:10:10;;;;;;;70.22;32.58;;;;;;;8.05;100.00;103013.34;4878855;29;20495;-85
2021/12/15 07:12:35;;;;;;;68.28;32.38;;;;;;;8.09;100.00;103026.66;4878385;29;20458;-86
2021/12/15 07:15:01;;;;;;;64.38;30.52;;;;;;;8.05;100.00;103022.13;4878545;29;20104;-86
2021/12/15 07:17:28;;;;;;;68.18;32.22;;;;;;;8.05;100.00;103023.91;4878127;29;20029;-86
2021/12/15 07:25:05;;;;;;;73.15;33.50;;;;;;;8.09;100.00;103033.69;4859377;29;20045;-86
2021/12/15 07:27:31;;;;;;;69.00;28.98;;;;;;;8.08;100.00;103021.31;4857668;29;20037;-86
2021/12/15 07:29:56;;;;;;;70.57;33.92;;;;;;;8.12;100.00;103020.53;4858822;29;20041;-86
2021/12/15 07:32:23;;;;;;;67.57;30.58;;;;;;;8.06;100.00;103017.75;4859128;29;20097;-86
2021/12/15 07:34:48;;;;;;;66.40;30.80;;;;;;;8.06;100.00;103025.66;4858777;29;20037;-86
2021/12/15 07:37:14;;;;;;;70.15;32.90;;;;;;;8.05;100.00;103026.53;4858447;29;20029;-86
2021/12/15 07:39:47;;;;;;;69.75;34.58;;;;;;;8.09;100.00;103033.69;4858871;29;20136;-86
2021/12/15 07:42:14;;;;;;;75.13;32.67;;;;;;;8.03;100.00;103029.13;4858752;29;20057;-86
2021/12/15 07:44:40;;;;;;;68.53;31.17;;;;;;;8.03;100.00;103022.97;4859009;29;20033;-86
2021/12/15 07:47:07;;;;;;;70.95;33.25;;;;;;;8.08;100.00;103035.41;4858407;29;20033;-86
2021/12/15 07:49:34;;;;;;;66.70;30.60;;;;;;;8.06;100.00;103026.56;4861889;29;20097;-86
2021/12/15 07:52:02;;;;;;;64.93;30.55;;;;;;;8.07;100.00;103036.25;4858566;29;20117;-86
2021/12/15 07:54:33;;;;;;;69.85;32.55;;;;;;;8.04;100.00;103030.03;4859861;29;20380;-86
2021/12/15 07:57:02;;;;;;;77.78;34.22;;;;;;;8.07;100.00;103031.00;4859817;29;20435;-85
2021/12/15 07:59:27;;;;;;;68.90;31.40;;;;;;;8.13;100.00;103046.06;4874113;29;20120;-85
2021/12/15 08:01:53;;;;;;;83.38;33.72;;;;;;;8.09;100.00;103036.31;4859892;29;20124;-85
2021/12/15 08:04:20;;;;;;;71.50;33.25;;;;;;;8.14;100.00;103043.47;4858307;29;20065;-85
2021/12/15 08:06:46;;;;;;;73.00;31.77;;;;;;;8.11;100.00;103042.50;4873738;29;20033;-86
2021/12/15 08:09:12;;;;;;;67.75;30.73;;;;;;;8.11;100.00;103040.78;4859787;29;20474;-85
2021/12/15 08:11:38;;;;;;;74.18;33.47;;;;;;;8.11;100.00;103045.13;4873913;29;20037;-86
2021/12/15 08:14:04;;;;;;;75.70;32.75;;;;;;;8.10;100.00;103046.00;4843079;29;20378;-86
2021/12/15 08:16:29;;;;;;;76.45;34.30;;;;;;;8.11;100.00;103047.78;4873877;29;20093;-86
2021/12/15 08:18:55;;;;;;;71.15;31.92;;;;;;;8.10;100.00;103040.72;4842799;29;20128;-85
2021/12/15 08:21:21;;;;;;;77.38;33.42;;;;;;;8.12;100.00;103047.81;4857842;29;20033;-86
2021/12/15 08:23:47;;;;;;;75.65;32.60;;;;;;;8.13;100.00;103051.34;4860556;29;20057;-86
2021/12/15 08:26:13;;;;;;;76.85;34.45;;;;;;;8.12;100.00;103042.53;4861035;29;20069;-86
2021/12/15 08:28:39;;;;;;;71.35;34.08;;;;;;;8.20;100.00;103061.19;4876460;29;20025;-86
2021/12/15 08:31:05;;;;;;;73.93;33.63;;;;;;;8.19;100.00;103056.78;4845697;29;20037;-86
2021/12/15 08:33:32;;;;;;;75.47;34.63;;;;;;;8.16;100.00;103043.53;4861146;29;20484;-86
2021/12/15 08:36:06;;;;;;;74.85;33.00;;;;;;;8.26;100.00;103055.16;4878129;29;20040;-85
2021/12/15 08:38:34;;;;;;;72.95;34.25;;;;;;;8.22;100.00;103059.50;4876334;29;20124;-86
2021/12/15 08:41:03;;;;;;;82.85;38.00;;;;;;;8.24;100.00;103064.81;4876317;29;20095;-86
2021/12/15 08:43:29;;;;;;;76.35;34.45;;;;;;;8.23;100.00;103052.44;4861071;29;20108;-86
2021/12/15 08:46:02;;;;;;;72.82;34.20;;;;;;;8.20;100.00;103055.91;4876387;29;20037;-86
2021/12/15 08:48:29;;;;;;;71.28;34.63;;;;;;;8.28;100.00;103064.91;4876377;29;20132;-86
2021/12/15 08:50:55;;;;;;;72.10;34.22;;;;;;;8.27;100.00;103071.03;4857864;29;20037;-86
2021/12/15 08:53:23;;;;;;;77.30;36.90;;;;;;;8.32;100.00;103068.50;4858058;29;20044;-86
2021/12/15 08:55:49;;;;;;;71.75;34.25;;;;;;;8.31;100.00;103064.09;4858194;29;20084;-86
2021/12/15 08:58:18;;;;;;;75.65;35.13;;;;;;;8.30;100.00;103057.03;4843130;29;20037;-86
2021/12/15 09:00:45;;;;;;;69.72;33.75;;;;;;;8.30;100.00;103054.38;4857895;29;20038;-86
2021/12/15 09:03:13;;;;;;;73.88;33.90;;;;;;;8.34;100.00;103051.84;4842684;29;20109;-86
2021/12/15 09:05:40;;;;;;;82.18;38.00;;;;;;;8.32;100.00;103058.84;4858304;29;20443;-86
2021/12/15 09:08:08;;;;;;;78.95;38.13;;;;;;;8.37;100.00;103075.69;4842933;29;20493;-86
2021/12/15 09:10:35;;;;;;;79.55;36.70;;;;;;;8.31;100.00;103062.34;4857537;29;20105;-86
2021/12/15 09:13:02;;;;;;;75.60;37.58;;;;;;;8.35;100.00;103063.28;4849920;29;20045;-86
2021/12/15 09:15:28;;;;;;;76.53;37.53;;;;;;;8.36;100.00;103065.09;4876386;29;20104;-86
2021/12/15 09:17:55;;;;;;;76.85;38.20;;;;;;;8.34;100.00;103069.44;4876323;29;20081;-86
2021/12/15 09:20:25;;;;;;;74.85;35.22;;;;;;;8.39;100.00;103078.38;4876354;29;20119;-86
2021/12/15 09:22:51;;;;;;;82.40;36.83;;;;;;;8.43;100.00;103084.63;4876357;29;20032;-86
2021/12/15 09:25:17;;;;;;;72.32;32.17;;;;;;;8.45;100.00;103088.19;4876355;29;20032;-85
2021/12/15 09:27:44;;;;;;;74.90;34.75;;;;;;;8.44;100.00;103094.34;4876325;29;20482;-85
2021/12/15 09:30:15;;;;;;;79.88;38.72;;;;;;;8.43;100.00;103088.16;4876714;29;20161;-85
2021/12/15 09:32:41;;;;;;;77.30;38.60;;;;;;;8.47;100.00;103100.56;4861021;29;20059;-86
2021/12/15 09:35:08;;;;;;;81.05;38.03;;;;;;;8.45;100.00;103094.38;4875918;29;20192;-86
2021/12/15 09:37:34;;;;;;;74.50;37.63;;;;;;;8.50;100.00;103097.13;4860448;29;20196;-86
2021/12/15 09:39:59;;;;;;;78.88;39.10;;;;;;;8.57;100.00;103104.31;4860634;29;20036;-86
2021/12/15 09:42:36;;;;;;;73.72;37.80;;;;;;;8.53;100.00;103103.38;4876250;29;20040;-86
2021/12/15 09:45:20;;;;;;;76.57;39.50;;;;;;;8.53;100.00;103091.91;4876359;29;20383;-86
2021/12/15 09:48:17;;;;;;;74.20;35.97;;;;;;;8.59;100.00;103099.97;4876362;29;20112;-86
2021/12/15 10:04:31;;;;;;;72.68;37.20;;;;;;;8.72;100.00;103106.41;4879545;29;20384;-86
2021/12/15 10:12:34;;;;;;;69.22;39.30;;;;;;;8.82;100.00;103111.91;4879297;29;20120;-86
2021/12/15 10:18:11;;;;;;;;;;;;;;;8.91;100.00;103108.59;4881371;29;20037;-86
2021/12/15 10:20:38;;;;;;;73.25;43.05;;;;;;;8.82;99.71;103103.13;4863446;29;19927;-86
2021/12/15 10:23:12;;;;;;;71.55;38.25;;;;;;;8.91;100.00;103113.88;4864092;29;20111;-86
2021/12/15 10:25:43;;;;;;;64.47;36.05;;;;;;;8.91;100.00;103108.59;4878838;29;20052;-86
2021/12/15 10:28:10;;;;;;;;;;;;;;;9.01;100.00;103115.84;4863906;29;20037;-86
2021/12/15 10:30:39;;;;;;;64.80;34.38;;;;;;;8.92;100.00;103099.81;4878915;29;19946;-86
2021/12/15 10:33:10;;;;;;;71.03;36.85;;;;;;;8.98;99.83;103099.94;4863328;29;20430;-86
2021/12/15 10:35:43;;;;;;;63.22;37.22;;;;;;;9.03;99.44;103100.94;4878863;29;20064;-86
2021/12/15 10:38:12;;;;;;;63.47;36.92;;;;;;;9.03;99.70;103108.84;4863102;29;20033;-86
2021/12/15 10:41:02;;;;;;;67.10;37.10;;;;;;;9.06;99.45;103108.03;4863048;29;20439;-86
2021/12/15 10:43:43;;;;;;;74.15;42.38;;;;;;;9.03;99.20;103102.69;4863198;29;20041;-87
2021/12/15 10:46:15;;;;;;;65.68;39.55;;;;;;;9.09;98.93;103108.09;4878915;29;20037;-86
2021/12/15 10:48:59;;;;;;;65.88;35.55;;;;;;;9.03;99.20;103097.41;4863076;29;20056;-86
2021/12/15 10:51:27;;;;;;;69.57;36.28;;;;;;;9.11;99.45;103111.66;4859950;29;20071;-86
2021/12/15 10:53:55;;;;;;;65.18;38.78;;;;;;;9.10;99.22;103112.53;4861233;29;20471;-86
2021/12/15 10:56:25;;;;;;;60.40;36.83;;;;;;;9.11;99.16;103116.94;4844375;29;20045;-86
2021/12/15 10:58:54;;;;;;;64.70;39.47;;;;;;;9.13;98.60;103117.00;4859814;29;20045;-86
2021/12/15 11:01:46;;;;;;;66.30;37.88;;;;;;;9.11;99.04;103106.38;4844553;29;20053;-86
2021/12/15 11:04:20;;;;;;;64.82;39.47;;;;;;;9.18;98.85;103107.41;4861213;29;20068;-86
2021/12/15 11:07:00;;;;;;;68.32;40.78;;;;;;;9.20;98.84;103110.97;4859639;29;20074;-86
2021/12/15 11:09:25;;;;;;;64.88;38.20;;;;;;;9.13;99.05;103109.06;4844411;29;20029;-86
2021/12/15 11:11:55;;;;;;;64.97;37.53;;;;;;;9.22;99.04;103110.13;4861124;29;20094;-85
2021/12/15 11:14:30;;;;;;;65.35;38.05;;;;;;;9.22;99.00;103102.22;4859886;29;20045;-86
2021/12/15 11:17:02;;;;;;;68.68;39.08;;;;;;;9.30;98.80;103109.38;4860653;29;20215;-86
2021/12/15 11:19:56;;;;;;;64.72;37.75;;;;;;;9.30;98.32;103102.34;4844777;29;20034;-85
2021/12/15 11:22:33;;;;;;;65.75;40.25;;;;;;;9.29;98.30;103104.97;4866186;29;20037;-86
2021/12/15 11:25:01;;;;;;;63.40;41.05;;;;;;;9.32;98.32;103108.56;4862436;29;20040;-86
2021/12/15 11:27:27;;;;;;;64.97;39.03;;;;;;;9.34;98.35;103112.09;4862187;29;20035;-86
2021/12/15 11:29:52;;;;;;;68.25;40.75;;;;;;;9.36;98.08;103112.16;4879659;29;20037;-86
2021/12/15 11:32:43;;;;;;;67.05;40.13;;;;;;;9.43;98.00;103106.13;4878000;29;20061;-86
2021/12/15 11:35:16;;;;;;;62.55;37.30;;;;;;;9.37;97.48;103091.03;4878118;29;20063;-86
2021/12/15 11:37:56;;;;;;;62.03;37.45;;;;;;;9.43;97.91;103099.06;4879360;29;20123;-86
2021/12/15 11:40:29;;;;;;;61.88;37.90;;;;;;;9.42;97.25;103094.66;4877697;29;20048;-86
2021/12/15 11:42:54;;;;;;;56.85;38.85;;;;;;;9.45;96.85;103100.00;4877863;29;20044;-86
2021/12/15 11:45:20;;;;;;;60.15;37.03;;;;;;;9.38;97.40;103082.22;4879235;29;20048;-86
2021/12/15 11:47:46;;;;;;;65.35;37.38;;;;;;;9.38;97.29;103084.88;4846321;29;20051;-86
2021/12/15 11:50:15;;;;;;;57.70;35.58;;;;;;;9.44;96.94;103094.66;4877718;29;20068;-86
2021/12/15 11:52:48;;;;;;;60.05;36.60;;;;;;;9.44;96.85;103099.97;4862217;29;20499;-86
2021/12/15 11:55:24;;;;;;;57.45;35.88;;;;;;;9.46;96.74;103087.66;4862087;29;20485;-86
2021/12/15 11:57:50;;;;;;;58.60;35.70;;;;;;;9.44;96.86;103084.97;4877330;29;20093;-84
2021/12/15 12:00:20;;;;;;;62.17;38.63;;;;;;;9.48;96.53;103099.16;4862026;29;20029;-84
2021/12/15 12:02:51;;;;;;;60.15;37.55;;;;;;;9.45;96.48;103091.19;4862150;29;20066;-85
2021/12/15 12:05:26;;;;;;;60.17;36.78;;;;;;;9.48;96.39;103097.41;4877478;29;20132;-84
2021/12/15 12:07:59;;;;;;;58.45;34.20;;;;;;;9.45;96.58;103089.41;4877567;29;20109;-85
2021/12/15 12:10:35;;;;;;;50.38;35.63;;;;;;;9.57;95.40;103101.06;4877712;29;20045;-85
2021/12/15 12:13:13;;;;;;;59.58;34.28;;;;;;;9.49;95.67;103087.72;4877426;29;20064;-85
2021/12/15 12:15:42;;;;;;;56.28;35.42;;;;;;;9.54;95.55;103088.69;4861666;29;20055;-85
2021/12/15 12:18:12;;;;;;;54.15;34.15;;;;;;;9.57;95.74;103090.50;4877474;29;20061;-85
2021/12/15 12:20:51;;;;;;;54.90;34.22;;;;;;;9.56;95.85;103089.59;4877518;29;20045;-85
2021/12/15 12:23:23;;;;;;;52.65;34.15;;;;;;;9.54;96.04;103077.22;4877531;29;20037;-85
2021/12/15 12:25:52;;;;;;;53.30;32.97;;;;;;;9.60;95.63;103085.28;4862620;29;20063;-84
2021/12/15 12:28:21;;;;;;;55.53;35.70;;;;;;;9.63;95.38;103085.31;4861899;29;20111;-85
2021/12/15 12:30:51;;;;;;;55.42;36.08;;;;;;;9.60;95.15;103082.63;4877094;29;20045;-85
2021/12/15 12:33:19;;;;;;;52.95;32.58;;;;;;;9.60;95.26;103090.56;4877270;29;20116;-85
2021/12/15 12:35:59;;;;;;;50.83;33.65;;;;;;;9.56;95.13;103071.09;4876992;29;20097;-85
2021/12/15 12:38:28;;;;;;;50.20;33.47;;;;;;;9.60;95.32;103078.22;4876725;29;20033;-85
2021/12/15 12:40:57;;;;;;;51.58;33.30;;;;;;;9.56;95.12;103070.22;4877091;29;20112;-84
2021/12/15 12:43:39;;;;;;;46.50;31.65;;;;;;;9.64;94.67;103080.09;4877106;29;20070;-85